Main page
METAR-TAF:

METAR-TAF

Airports :

Lake Cumberland Regional Airport

Somerset, Kentucky, United States

latitude: 37-03-15N, longitude: 084-36-54W, elevation: 928 ft

Current weather observation

The report was made 22 minutes ago, at 02:15 UTC
Temperature 73°F
Humidity 61%
Pressure 30.07 in. Hg
Visibility: 10 miles
Clear sky

METAR: KSME 030215Z 10SM CLR 23/15 A3007 RMK AO2

Time: 22:37 (02:37 UTC)

Forecast

The report was made 3 hours and 16 minutes ago, at 23:21 UTC
Forecast valid from 03 at 00 UTC to 03 at 24 UTC
Wind 12 mph from the West/Southwest
Visibility: 6 miles
Scattered clouds at a height of 5000 ft
From 03 at 0200 UTC
Wind 0 mph from the North
Visibility: 6 miles
Few clouds at a height of 15000 ft
From 03 at 1400 UTC
Wind 12 mph from the West/Southwest
Visibility: 6 miles
Scattered clouds at a height of 15000 ft

TAF: KSME 022321Z 0300/0324 25010KT P6SM SCT050 FM030200 00000KT P6SM FEW150 FM031400 24010KT P6SM SCT150

Weather observations and forecasts of more than 4000 airports (METAR and TAF reports).

The available stations are represented by yellow and red dots on the map.

Hover mouse over dot to see the name of the station.

Then click to see weather observations and forecasts.

To change the map : click on the green buttons with a black cross to zoom in, on the green button with a dash to zoom out, or on the green arrows for adjacent maps.


METAR-TAF: